sensor_id;sensor_type;location;lat;lon;timestamp;P1;durP1;ratioP1;P2;durP2;ratioP2
60088;SDS011;45961;53.574;55.878;2022-08-19T00:00:47;5.35;;;2.70;;
60088;SDS011;45961;53.574;55.878;2022-08-19T00:01:51;6.70;;;3.15;;
60088;SDS011;45961;53.574;55.878;2022-08-19T00:02:54;6.22;;;3.00;;
60088;SDS011;45961;53.574;55.878;2022-08-19T00:04:59;7.85;;;3.10;;
60088;SDS011;45961;53.574;55.878;2022-08-19T00:06:00;4.50;;;2.58;;
60088;SDS011;45961;53.574;55.878;2022-08-19T00:07:02;5.78;;;2.70;;
60088;SDS011;45961;53.574;55.878;2022-08-19T00:08:05;5.40;;;2.70;;
60088;SDS011;45961;53.574;55.878;2022-08-19T00:09:08;5.82;;;2.70;;
60088;SDS011;45961;53.574;55.878;2022-08-19T00:10:12;6.45;;;2.90;;
60088;SDS011;45961;53.574;55.878;2022-08-19T00:11:15;6.97;;;3.10;;
60088;SDS011;45961;53.574;55.878;2022-08-19T00:12:16;5.13;;;2.88;;
60088;SDS011;45961;53.574;55.878;2022-08-19T00:13:17;3.33;;;2.60;;
60088;SDS011;45961;53.574;55.878;2022-08-19T00:14:18;7.97;;;2.75;;
60088;SDS011;45961;53.574;55.878;2022-08-19T00:15:21;5.50;;;2.95;;
60088;SDS011;45961;53.574;55.878;2022-08-19T00:16:23;5.05;;;2.63;;
60088;SDS011;45961;53.574;55.878;2022-08-19T00:17:25;4.15;;;2.60;;
60088;SDS011;45961;53.574;55.878;2022-08-19T00:18:26;5.82;;;2.80;;
60088;SDS011;45961;53.574;55.878;2022-08-19T00:19:27;4.55;;;2.33;;
60088;SDS011;45961;53.574;55.878;2022-08-19T00:20:28;6.22;;;2.47;;
60088;SDS011;45961;53.574;55.878;2022-08-19T00:21:30;5.20;;;2.72;;
60088;SDS011;45961;53.574;55.878;2022-08-19T00:22:31;6.95;;;2.95;;
60088;SDS011;45961;53.574;55.878;2022-08-19T00:23:34;5.68;;;2.60;;
60088;SDS011;45961;53.574;55.878;2022-08-19T00:24:36;6.88;;;2.40;;
60088;SDS011;45961;53.574;55.878;2022-08-19T00:25:39;5.25;;;2.67;;
60088;SDS011;45961;53.574;55.878;2022-08-19T00:26:41;3.92;;;2.63;;
60088;SDS011;45961;53.574;55.878;2022-08-19T00:27:43;5.57;;;2.63;;
60088;SDS011;45961;53.574;55.878;2022-08-19T00:28:44;6.95;;;3.05;;
60088;SDS011;45961;53.574;55.878;2022-08-19T00:29:46;8.20;;;3.03;;
60088;SDS011;45961;53.574;55.878;2022-08-19T00:30:47;4.72;;;2.45;;
60088;SDS011;45961;53.574;55.878;2022-08-19T00:31:49;8.85;;;2.83;;
60088;SDS011;45961;53.574;55.878;2022-08-19T00:32:53;6.13;;;2.50;;
60088;SDS011;45961;53.574;55.878;2022-08-19T00:33:55;3.40;;;2.65;;
60088;SDS011;45961;53.574;55.878;2022-08-19T00:34:56;4.50;;;2.95;;
60088;SDS011;45961;53.574;55.878;2022-08-19T00:35:58;6.97;;;3.13;;
60088;SDS011;45961;53.574;55.878;2022-08-19T00:37:00;4.55;;;2.78;;
60088;SDS011;45961;53.574;55.878;2022-08-19T00:38:01;3.40;;;2.47;;
60088;SDS011;45961;53.574;55.878;2022-08-19T00:39:02;6.45;;;2.92;;
60088;SDS011;45961;53.574;55.878;2022-08-19T00:40:04;3.45;;;2.30;;
60088;SDS011;45961;53.574;55.878;2022-08-19T00:41:06;4.70;;;2.95;;
60088;SDS011;45961;53.574;55.878;2022-08-19T00:42:08;4.13;;;2.40;;
60088;SDS011;45961;53.574;55.878;2022-08-19T00:43:09;4.85;;;2.53;;
60088;SDS011;45961;53.574;55.878;2022-08-19T00:44:13;3.28;;;2.80;;
60088;SDS011;45961;53.574;55.878;2022-08-19T00:45:18;3.65;;;2.35;;
60088;SDS011;45961;53.574;55.878;2022-08-19T00:46:21;5.18;;;2.60;;
60088;SDS011;45961;53.574;55.878;2022-08-19T00:47:22;3.65;;;2.58;;
60088;SDS011;45961;53.574;55.878;2022-08-19T00:48:23;4.53;;;2.90;;
60088;SDS011;45961;53.574;55.878;2022-08-19T00:50:52;4.07;;;3.25;;
60088;SDS011;45961;53.574;55.878;2022-08-19T00:53:34;3.83;;;3.03;;
60088;SDS011;45961;53.574;55.878;2022-08-19T00:54:36;6.28;;;2.97;;
60088;SDS011;45961;53.574;55.878;2022-08-19T00:55:39;5.22;;;3.10;;
60088;SDS011;45961;53.574;55.878;2022-08-19T00:56:40;4.22;;;3.20;;
60088;SDS011;45961;53.574;55.878;2022-08-19T00:57:44;5.20;;;2.88;;
60088;SDS011;45961;53.574;55.878;2022-08-19T00:58:48;5.97;;;3.35;;
60088;SDS011;45961;53.574;55.878;2022-08-19T00:59:51;3.80;;;2.97;;
60088;SDS011;45961;53.574;55.878;2022-08-19T01:00:55;4.45;;;2.60;;
60088;SDS011;45961;53.574;55.878;2022-08-19T01:01:56;4.45;;;2.85;;
60088;SDS011;45961;53.574;55.878;2022-08-19T01:03:59;5.60;;;2.90;;
60088;SDS011;45961;53.574;55.878;2022-08-19T01:05:01;6.10;;;4.25;;
60088;SDS011;45961;53.574;55.878;2022-08-19T01:06:05;7.47;;;4.68;;
60088;SDS011;45961;53.574;55.878;2022-08-19T01:08:08;6.47;;;3.73;;
60088;SDS011;45961;53.574;55.878;2022-08-19T01:09:09;4.93;;;2.97;;
60088;SDS011;45961;53.574;55.878;2022-08-19T01:11:14;5.93;;;3.05;;
60088;SDS011;45961;53.574;55.878;2022-08-19T01:12:15;7.00;;;3.72;;
60088;SDS011;45961;53.574;55.878;2022-08-19T01:13:17;4.75;;;3.00;;
60088;SDS011;45961;53.574;55.878;2022-08-19T01:14:21;4.22;;;3.25;;
60088;SDS011;45961;53.574;55.878;2022-08-19T01:15:25;4.35;;;3.50;;
60088;SDS011;45961;53.574;55.878;2022-08-19T01:16:34;7.83;;;3.30;;
60088;SDS011;45961;53.574;55.878;2022-08-19T01:17:38;4.45;;;2.83;;
60088;SDS011;45961;53.574;55.878;2022-08-19T01:18:41;6.05;;;3.22;;
60088;SDS011;45961;53.574;55.878;2022-08-19T01:19:43;3.00;;;2.75;;
60088;SDS011;45961;53.574;55.878;2022-08-19T01:20:47;5.47;;;3.22;;
60088;SDS011;45961;53.574;55.878;2022-08-19T01:21:52;7.40;;;3.28;;
60088;SDS011;45961;53.574;55.878;2022-08-19T01:23:01;3.55;;;2.58;;
60088;SDS011;45961;53.574;55.878;2022-08-19T01:24:03;3.70;;;3.00;;
60088;SDS011;45961;53.574;55.878;2022-08-19T01:25:04;7.20;;;3.20;;
60088;SDS011;45961;53.574;55.878;2022-08-19T01:26:06;6.70;;;2.92;;
60088;SDS011;45961;53.574;55.878;2022-08-19T01:27:07;6.03;;;3.55;;
60088;SDS011;45961;53.574;55.878;2022-08-19T01:28:08;4.50;;;3.05;;
60088;SDS011;45961;53.574;55.878;2022-08-19T01:29:26;5.97;;;3.10;;
60088;SDS011;45961;53.574;55.878;2022-08-19T01:30:28;3.30;;;2.97;;
60088;SDS011;45961;53.574;55.878;2022-08-19T01:31:31;3.75;;;3.00;;
60088;SDS011;45961;53.574;55.878;2022-08-19T01:32:32;6.05;;;3.10;;
60088;SDS011;45961;53.574;55.878;2022-08-19T01:33:34;4.90;;;3.17;;
60088;SDS011;45961;53.574;55.878;2022-08-19T01:34:35;5.90;;;3.38;;
60088;SDS011;45961;53.574;55.878;2022-08-19T01:35:36;7.40;;;3.63;;
60088;SDS011;45961;53.574;55.878;2022-08-19T01:36:38;5.90;;;3.40;;
60088;SDS011;45961;53.574;55.878;2022-08-19T01:37:50;4.45;;;3.15;;
60088;SDS011;45961;53.574;55.878;2022-08-19T01:38:53;14.73;;;3.63;;
60088;SDS011;45961;53.574;55.878;2022-08-19T01:39:55;7.35;;;3.53;;
60088;SDS011;45961;53.574;55.878;2022-08-19T01:40:55;12.35;;;3.42;;
60088;SDS011;45961;53.574;55.878;2022-08-19T01:41:56;9.65;;;4.03;;
60088;SDS011;45961;53.574;55.878;2022-08-19T01:42:58;8.50;;;4.18;;
60088;SDS011;45961;53.574;55.878;2022-08-19T01:44:00;14.30;;;4.20;;
60088;SDS011;45961;53.574;55.878;2022-08-19T01:45:04;21.63;;;4.80;;
60088;SDS011;45961;53.574;55.878;2022-08-19T01:46:06;12.00;;;3.50;;
60088;SDS011;45961;53.574;55.878;2022-08-19T01:48:09;13.65;;;3.95;;
60088;SDS011;45961;53.574;55.878;2022-08-19T01:49:11;13.38;;;4.75;;
60088;SDS011;45961;53.574;55.878;2022-08-19T01:50:12;14.88;;;3.83;;
60088;SDS011;45961;53.574;55.878;2022-08-19T01:52:14;15.75;;;3.90;;
60088;SDS011;45961;53.574;55.878;2022-08-19T01:53:15;19.10;;;4.00;;
60088;SDS011;45961;53.574;55.878;2022-08-19T01:54:17;16.73;;;4.40;;
60088;SDS011;45961;53.574;55.878;2022-08-19T01:55:20;11.75;;;4.07;;
60088;SDS011;45961;53.574;55.878;2022-08-19T01:56:24;15.68;;;4.70;;
60088;SDS011;45961;53.574;55.878;2022-08-19T01:57:26;14.02;;;4.35;;
60088;SDS011;45961;53.574;55.878;2022-08-19T01:58:29;10.35;;;4.18;;
60088;SDS011;45961;53.574;55.878;2022-08-19T01:59:36;17.25;;;4.30;;
60088;SDS011;45961;53.574;55.878;2022-08-19T02:00:38;13.73;;;3.85;;
60088;SDS011;45961;53.574;55.878;2022-08-19T02:01:40;11.50;;;4.40;;
60088;SDS011;45961;53.574;55.878;2022-08-19T02:02:41;12.88;;;4.28;;
60088;SDS011;45961;53.574;55.878;2022-08-19T02:03:42;10.88;;;3.65;;
60088;SDS011;45961;53.574;55.878;2022-08-19T02:05:46;16.42;;;3.85;;
60088;SDS011;45961;53.574;55.878;2022-08-19T02:06:47;18.70;;;4.57;;
60088;SDS011;45961;53.574;55.878;2022-08-19T02:07:48;14.50;;;5.32;;
60088;SDS011;45961;53.574;55.878;2022-08-19T02:08:49;19.85;;;4.00;;
60088;SDS011;45961;53.574;55.878;2022-08-19T02:09:50;23.38;;;4.50;;
60088;SDS011;45961;53.574;55.878;2022-08-19T02:10:51;16.65;;;4.18;;
60088;SDS011;45961;53.574;55.878;2022-08-19T02:12:54;14.05;;;3.85;;
60088;SDS011;45961;53.574;55.878;2022-08-19T02:13:55;13.48;;;3.75;;
60088;SDS011;45961;53.574;55.878;2022-08-19T02:14:56;10.05;;;4.30;;
60088;SDS011;45961;53.574;55.878;2022-08-19T02:15:57;17.80;;;4.47;;
60088;SDS011;45961;53.574;55.878;2022-08-19T02:16:58;10.77;;;3.60;;
60088;SDS011;45961;53.574;55.878;2022-08-19T02:17:59;15.27;;;4.05;;
60088;SDS011;45961;53.574;55.878;2022-08-19T02:19:00;12.73;;;3.72;;
60088;SDS011;45961;53.574;55.878;2022-08-19T02:20:01;14.48;;;3.75;;
60088;SDS011;45961;53.574;55.878;2022-08-19T02:22:03;9.00;;;3.30;;
60088;SDS011;45961;53.574;55.878;2022-08-19T02:24:05;11.30;;;3.30;;
60088;SDS011;45961;53.574;55.878;2022-08-19T02:25:07;9.98;;;3.45;;
60088;SDS011;45961;53.574;55.878;2022-08-19T02:26:09;9.88;;;3.65;;
60088;SDS011;45961;53.574;55.878;2022-08-19T02:27:10;13.68;;;4.13;;
60088;SDS011;45961;53.574;55.878;2022-08-19T02:28:11;9.13;;;3.72;;
60088;SDS011;45961;53.574;55.878;2022-08-19T02:29:12;12.25;;;4.30;;
60088;SDS011;45961;53.574;55.878;2022-08-19T02:30:17;7.85;;;3.90;;
60088;SDS011;45961;53.574;55.878;2022-08-19T02:31:20;9.68;;;4.57;;
60088;SDS011;45961;53.574;55.878;2022-08-19T02:32:22;8.68;;;4.47;;
60088;SDS011;45961;53.574;55.878;2022-08-19T02:33:23;12.50;;;4.25;;
60088;SDS011;45961;53.574;55.878;2022-08-19T02:35:25;13.03;;;4.03;;
60088;SDS011;45961;53.574;55.878;2022-08-19T02:36:26;13.35;;;4.95;;
60088;SDS011;45961;53.574;55.878;2022-08-19T02:37:28;7.53;;;4.60;;
60088;SDS011;45961;53.574;55.878;2022-08-19T02:38:47;9.02;;;4.68;;
60088;SDS011;45961;53.574;55.878;2022-08-19T02:40:51;10.25;;;4.45;;
60088;SDS011;45961;53.574;55.878;2022-08-19T02:41:54;11.30;;;4.53;;
60088;SDS011;45961;53.574;55.878;2022-08-19T02:42:55;10.10;;;4.45;;
60088;SDS011;45961;53.574;55.878;2022-08-19T02:43:57;13.25;;;4.18;;
60088;SDS011;45961;53.574;55.878;2022-08-19T02:44:59;7.53;;;3.70;;
60088;SDS011;45961;53.574;55.878;2022-08-19T02:46:01;15.73;;;4.20;;
60088;SDS011;45961;53.574;55.878;2022-08-19T02:47:02;11.80;;;3.53;;
60088;SDS011;45961;53.574;55.878;2022-08-19T02:48:04;6.07;;;3.20;;
60088;SDS011;45961;53.574;55.878;2022-08-19T02:49:06;10.60;;;3.53;;
60088;SDS011;45961;53.574;55.878;2022-08-19T02:50:07;9.07;;;2.97;;
60088;SDS011;45961;53.574;55.878;2022-08-19T02:51:09;11.32;;;3.60;;
60088;SDS011;45961;53.574;55.878;2022-08-19T02:52:16;6.53;;;3.00;;
60088;SDS011;45961;53.574;55.878;2022-08-19T02:53:17;6.97;;;2.85;;
60088;SDS011;45961;53.574;55.878;2022-08-19T02:54:18;5.68;;;2.50;;
60088;SDS011;45961;53.574;55.878;2022-08-19T02:55:19;7.18;;;3.25;;
60088;SDS011;45961;53.574;55.878;2022-08-19T02:56:21;5.03;;;2.50;;
60088;SDS011;45961;53.574;55.878;2022-08-19T02:57:23;6.53;;;2.70;;
60088;SDS011;45961;53.574;55.878;2022-08-19T02:58:24;5.03;;;2.45;;
60088;SDS011;45961;53.574;55.878;2022-08-19T02:59:29;7.78;;;2.60;;
60088;SDS011;45961;53.574;55.878;2022-08-19T03:00:31;6.65;;;2.15;;
60088;SDS011;45961;53.574;55.878;2022-08-19T03:01:32;4.28;;;2.30;;
60088;SDS011;45961;53.574;55.878;2022-08-19T03:02:33;4.50;;;2.15;;
60088;SDS011;45961;53.574;55.878;2022-08-19T03:04:35;8.77;;;2.53;;
60088;SDS011;45961;53.574;55.878;2022-08-19T03:05:36;4.63;;;2.13;;
60088;SDS011;45961;53.574;55.878;2022-08-19T03:06:38;7.57;;;2.25;;
60088;SDS011;45961;53.574;55.878;2022-08-19T03:07:41;8.98;;;2.95;;
60088;SDS011;45961;53.574;55.878;2022-08-19T03:08:43;4.68;;;2.15;;
60088;SDS011;45961;53.574;55.878;2022-08-19T03:09:46;6.35;;;2.35;;
60088;SDS011;45961;53.574;55.878;2022-08-19T03:10:47;9.00;;;2.50;;
60088;SDS011;45961;53.574;55.878;2022-08-19T03:12:49;4.43;;;2.13;;
60088;SDS011;45961;53.574;55.878;2022-08-19T03:13:50;8.48;;;2.30;;
60088;SDS011;45961;53.574;55.878;2022-08-19T03:14:51;8.80;;;2.85;;
60088;SDS011;45961;53.574;55.878;2022-08-19T03:15:53;4.43;;;2.65;;
60088;SDS011;45961;53.574;55.878;2022-08-19T03:16:54;6.50;;;2.15;;
60088;SDS011;45961;53.574;55.878;2022-08-19T03:17:55;4.93;;;2.45;;
60088;SDS011;45961;53.574;55.878;2022-08-19T03:18:56;7.88;;;2.38;;
60088;SDS011;45961;53.574;55.878;2022-08-19T03:20:02;4.15;;;2.10;;
60088;SDS011;45961;53.574;55.878;2022-08-19T03:21:04;5.22;;;2.72;;
60088;SDS011;45961;53.574;55.878;2022-08-19T03:22:06;4.75;;;2.25;;
60088;SDS011;45961;53.574;55.878;2022-08-19T03:23:08;5.88;;;1.95;;
60088;SDS011;45961;53.574;55.878;2022-08-19T03:25:10;6.03;;;2.25;;
60088;SDS011;45961;53.574;55.878;2022-08-19T03:26:12;4.43;;;2.33;;
60088;SDS011;45961;53.574;55.878;2022-08-19T03:27:15;4.32;;;2.30;;
60088;SDS011;45961;53.574;55.878;2022-08-19T03:28:17;4.07;;;2.15;;
60088;SDS011;45961;53.574;55.878;2022-08-19T03:29:18;6.30;;;2.88;;
60088;SDS011;45961;53.574;55.878;2022-08-19T03:30:19;6.53;;;2.70;;
60088;SDS011;45961;53.574;55.878;2022-08-19T03:31:21;5.57;;;2.28;;
60088;SDS011;45961;53.574;55.878;2022-08-19T03:32:23;6.63;;;2.63;;
60088;SDS011;45961;53.574;55.878;2022-08-19T03:33:25;6.32;;;2.40;;
60088;SDS011;45961;53.574;55.878;2022-08-19T03:34:29;6.65;;;2.40;;
60088;SDS011;45961;53.574;55.878;2022-08-19T03:35:31;4.47;;;2.55;;
60088;SDS011;45961;53.574;55.878;2022-08-19T03:36:32;5.07;;;2.20;;
60088;SDS011;45961;53.574;55.878;2022-08-19T03:38:43;7.03;;;2.35;;
60088;SDS011;45961;53.574;55.878;2022-08-19T03:39:46;8.68;;;2.58;;
60088;SDS011;45961;53.574;55.878;2022-08-19T03:40:47;9.07;;;2.20;;
60088;SDS011;45961;53.574;55.878;2022-08-19T03:41:48;7.72;;;2.92;;
60088;SDS011;45961;53.574;55.878;2022-08-19T03:42:50;4.90;;;2.40;;
60088;SDS011;45961;53.574;55.878;2022-08-19T03:43:52;2.15;;;1.67;;
60088;SDS011;45961;53.574;55.878;2022-08-19T03:44:54;4.47;;;2.05;;
60088;SDS011;45961;53.574;55.878;2022-08-19T03:46:02;5.53;;;1.98;;
60088;SDS011;45961;53.574;55.878;2022-08-19T03:47:11;5.78;;;2.38;;
60088;SDS011;45961;53.574;55.878;2022-08-19T03:48:16;4.60;;;2.00;;
60088;SDS011;45961;53.574;55.878;2022-08-19T03:49:18;3.25;;;1.85;;
60088;SDS011;45961;53.574;55.878;2022-08-19T03:50:20;11.43;;;2.00;;
60088;SDS011;45961;53.574;55.878;2022-08-19T03:51:28;3.55;;;1.98;;
60088;SDS011;45961;53.574;55.878;2022-08-19T03:52:35;7.45;;;1.83;;
60088;SDS011;45961;53.574;55.878;2022-08-19T03:53:36;4.80;;;2.00;;
60088;SDS011;45961;53.574;55.878;2022-08-19T03:54:37;7.70;;;1.95;;
60088;SDS011;45961;53.574;55.878;2022-08-19T03:55:39;3.40;;;1.40;;
60088;SDS011;45961;53.574;55.878;2022-08-19T03:56:43;6.20;;;1.48;;
60088;SDS011;45961;53.574;55.878;2022-08-19T03:57:45;6.25;;;1.40;;
60088;SDS011;45961;53.574;55.878;2022-08-19T03:58:48;3.70;;;1.77;;
60088;SDS011;45961;53.574;55.878;2022-08-19T03:59:49;4.47;;;1.70;;
60088;SDS011;45961;53.574;55.878;2022-08-19T04:00:50;5.30;;;1.48;;
60088;SDS011;45961;53.574;55.878;2022-08-19T04:01:52;4.88;;;1.60;;
60088;SDS011;45961;53.574;55.878;2022-08-19T04:02:57;9.32;;;1.92;;
60088;SDS011;45961;53.574;55.878;2022-08-19T04:03:58;8.05;;;2.53;;
60088;SDS011;45961;53.574;55.878;2022-08-19T04:05:00;5.70;;;1.92;;
60088;SDS011;45961;53.574;55.878;2022-08-19T04:07:12;4.15;;;2.03;;
60088;SDS011;45961;53.574;55.878;2022-08-19T04:08:16;7.72;;;1.77;;
60088;SDS011;45961;53.574;55.878;2022-08-19T04:09:20;4.72;;;1.35;;
60088;SDS011;45961;53.574;55.878;2022-08-19T04:10:21;5.70;;;1.95;;
60088;SDS011;45961;53.574;55.878;2022-08-19T04:11:27;6.47;;;1.95;;
60088;SDS011;45961;53.574;55.878;2022-08-19T04:12:31;3.70;;;1.42;;
60088;SDS011;45961;53.574;55.878;2022-08-19T04:13:33;4.05;;;1.85;;
60088;SDS011;45961;53.574;55.878;2022-08-19T04:14:34;3.67;;;1.90;;
60088;SDS011;45961;53.574;55.878;2022-08-19T04:16:42;7.55;;;1.85;;
60088;SDS011;45961;53.574;55.878;2022-08-19T04:17:46;3.90;;;1.70;;
60088;SDS011;45961;53.574;55.878;2022-08-19T04:19:49;4.93;;;1.90;;
60088;SDS011;45961;53.574;55.878;2022-08-19T04:21:53;4.63;;;2.00;;
60088;SDS011;45961;53.574;55.878;2022-08-19T04:22:56;3.88;;;1.52;;
60088;SDS011;45961;53.574;55.878;2022-08-19T04:23:57;3.75;;;1.60;;
60088;SDS011;45961;53.574;55.878;2022-08-19T04:25:59;5.82;;;1.92;;
60088;SDS011;45961;53.574;55.878;2022-08-19T04:27:00;5.82;;;1.90;;
60088;SDS011;45961;53.574;55.878;2022-08-19T04:28:02;3.20;;;1.98;;
60088;SDS011;45961;53.574;55.878;2022-08-19T04:29:04;3.03;;;1.55;;
60088;SDS011;45961;53.574;55.878;2022-08-19T04:30:08;4.90;;;1.38;;
60088;SDS011;45961;53.574;55.878;2022-08-19T04:31:13;3.95;;;1.30;;
60088;SDS011;45961;53.574;55.878;2022-08-19T04:32:16;3.28;;;1.13;;
60088;SDS011;45961;53.574;55.878;2022-08-19T04:33:19;4.45;;;1.25;;
60088;SDS011;45961;53.574;55.878;2022-08-19T04:34:25;5.85;;;1.63;;
60088;SDS011;45961;53.574;55.878;2022-08-19T04:35:31;3.47;;;1.52;;
60088;SDS011;45961;53.574;55.878;2022-08-19T04:36:38;2.83;;;1.45;;
60088;SDS011;45961;53.574;55.878;2022-08-19T04:37:41;9.02;;;1.67;;
60088;SDS011;45961;53.574;55.878;2022-08-19T04:38:42;2.60;;;1.58;;
60088;SDS011;45961;53.574;55.878;2022-08-19T04:39:43;2.25;;;1.52;;
60088;SDS011;45961;53.574;55.878;2022-08-19T04:41:03;3.38;;;1.20;;
60088;SDS011;45961;53.574;55.878;2022-08-19T04:42:23;2.75;;;1.40;;
60088;SDS011;45961;53.574;55.878;2022-08-19T04:43:39;3.28;;;1.40;;
60088;SDS011;45961;53.574;55.878;2022-08-19T04:44:40;3.45;;;1.73;;
60088;SDS011;45961;53.574;55.878;2022-08-19T04:46:45;8.45;;;2.28;;
60088;SDS011;45961;53.574;55.878;2022-08-19T04:47:48;6.40;;;1.77;;
60088;SDS011;45961;53.574;55.878;2022-08-19T04:48:49;6.15;;;1.45;;
60088;SDS011;45961;53.574;55.878;2022-08-19T04:49:50;3.20;;;1.40;;
60088;SDS011;45961;53.574;55.878;2022-08-19T04:50:52;4.07;;;1.20;;
60088;SDS011;45961;53.574;55.878;2022-08-19T04:51:57;5.72;;;1.75;;
60088;SDS011;45961;53.574;55.878;2022-08-19T04:52:58;6.57;;;1.90;;
60088;SDS011;45961;53.574;55.878;2022-08-19T04:54:00;4.60;;;1.15;;
60088;SDS011;45961;53.574;55.878;2022-08-19T04:55:02;2.40;;;1.27;;
60088;SDS011;45961;53.574;55.878;2022-08-19T04:56:07;4.15;;;1.80;;
60088;SDS011;45961;53.574;55.878;2022-08-19T04:57:13;3.65;;;1.63;;
60088;SDS011;45961;53.574;55.878;2022-08-19T04:58:14;4.45;;;1.60;;
60088;SDS011;45961;53.574;55.878;2022-08-19T04:59:17;3.83;;;1.48;;
60088;SDS011;45961;53.574;55.878;2022-08-19T05:00:19;6.82;;;1.50;;
60088;SDS011;45961;53.574;55.878;2022-08-19T05:01:25;3.88;;;1.33;;
60088;SDS011;45961;53.574;55.878;2022-08-19T05:02:28;2.05;;;1.38;;
60088;SDS011;45961;53.574;55.878;2022-08-19T05:03:30;2.97;;;1.60;;
60088;SDS011;45961;53.574;55.878;2022-08-19T05:04:34;5.03;;;1.75;;
60088;SDS011;45961;53.574;55.878;2022-08-19T05:05:40;5.90;;;1.40;;
60088;SDS011;45961;53.574;55.878;2022-08-19T05:06:42;5.85;;;1.52;;
60088;SDS011;45961;53.574;55.878;2022-08-19T05:07:43;4.47;;;1.40;;
60088;SDS011;45961;53.574;55.878;2022-08-19T05:08:45;4.13;;;1.73;;
60088;SDS011;45961;53.574;55.878;2022-08-19T05:09:46;3.97;;;1.50;;
60088;SDS011;45961;53.574;55.878;2022-08-19T05:10:48;4.07;;;1.83;;
60088;SDS011;45961;53.574;55.878;2022-08-19T05:11:50;5.72;;;1.70;;
60088;SDS011;45961;53.574;55.878;2022-08-19T05:12:53;3.95;;;1.65;;
60088;SDS011;45961;53.574;55.878;2022-08-19T05:13:54;6.10;;;2.00;;
60088;SDS011;45961;53.574;55.878;2022-08-19T05:14:57;4.15;;;1.38;;
60088;SDS011;45961;53.574;55.878;2022-08-19T05:15:58;5.15;;;1.60;;
60088;SDS011;45961;53.574;55.878;2022-08-19T05:17:00;5.53;;;1.70;;
60088;SDS011;45961;53.574;55.878;2022-08-19T05:19:21;2.55;;;1.42;;
60088;SDS011;45961;53.574;55.878;2022-08-19T05:20:40;6.50;;;1.50;;
60088;SDS011;45961;53.574;55.878;2022-08-19T05:21:59;7.43;;;3.05;;
60088;SDS011;45961;53.574;55.878;2022-08-19T05:23:19;4.78;;;1.40;;
60088;SDS011;45961;53.574;55.878;2022-08-19T05:24:21;2.10;;;1.20;;
60088;SDS011;45961;53.574;55.878;2022-08-19T05:25:23;3.95;;;1.52;;
60088;SDS011;45961;53.574;55.878;2022-08-19T05:26:25;3.75;;;1.50;;
60088;SDS011;45961;53.574;55.878;2022-08-19T05:27:29;2.40;;;1.60;;
60088;SDS011;45961;53.574;55.878;2022-08-19T05:28:30;8.40;;;1.85;;
60088;SDS011;45961;53.574;55.878;2022-08-19T05:29:31;6.63;;;2.05;;
60088;SDS011;45961;53.574;55.878;2022-08-19T05:30:34;8.05;;;1.75;;
60088;SDS011;45961;53.574;55.878;2022-08-19T05:31:38;3.13;;;1.45;;
60088;SDS011;45961;53.574;55.878;2022-08-19T05:32:40;3.42;;;1.33;;
60088;SDS011;45961;53.574;55.878;2022-08-19T05:33:41;4.13;;;1.52;;
60088;SDS011;45961;53.574;55.878;2022-08-19T05:34:42;4.50;;;1.95;;
60088;SDS011;45961;53.574;55.878;2022-08-19T05:35:43;2.00;;;1.30;;
60088;SDS011;45961;53.574;55.878;2022-08-19T05:36:44;3.50;;;1.60;;
60088;SDS011;45961;53.574;55.878;2022-08-19T05:38:46;3.33;;;1.43;;
60088;SDS011;45961;53.574;55.878;2022-08-19T05:39:48;2.85;;;1.35;;
60088;SDS011;45961;53.574;55.878;2022-08-19T05:40:49;3.33;;;1.40;;
60088;SDS011;45961;53.574;55.878;2022-08-19T05:41:54;3.22;;;1.50;;
60088;SDS011;45961;53.574;55.878;2022-08-19T05:42:58;4.45;;;1.40;;
60088;SDS011;45961;53.574;55.878;2022-08-19T05:44:03;2.10;;;1.55;;
60088;SDS011;45961;53.574;55.878;2022-08-19T05:45:09;4.07;;;1.45;;
60088;SDS011;45961;53.574;55.878;2022-08-19T05:46:15;2.75;;;1.27;;
60088;SDS011;45961;53.574;55.878;2022-08-19T05:47:19;4.45;;;1.77;;
60088;SDS011;45961;53.574;55.878;2022-08-19T05:48:20;3.45;;;1.30;;
60088;SDS011;45961;53.574;55.878;2022-08-19T05:49:22;4.32;;;1.60;;
60088;SDS011;45961;53.574;55.878;2022-08-19T05:50:24;2.65;;;1.67;;
60088;SDS011;45961;53.574;55.878;2022-08-19T05:51:28;3.97;;;1.77;;
60088;SDS011;45961;53.574;55.878;2022-08-19T05:52:29;4.18;;;1.70;;
60088;SDS011;45961;53.574;55.878;2022-08-19T05:53:30;3.45;;;1.65;;
60088;SDS011;45961;53.574;55.878;2022-08-19T05:54:31;3.60;;;1.63;;
60088;SDS011;45961;53.574;55.878;2022-08-19T05:55:33;5.90;;;1.70;;
60088;SDS011;45961;53.574;55.878;2022-08-19T05:56:35;3.10;;;1.63;;
60088;SDS011;45961;53.574;55.878;2022-08-19T05:57:39;3.10;;;1.65;;
60088;SDS011;45961;53.574;55.878;2022-08-19T05:58:40;3.80;;;1.83;;
60088;SDS011;45961;53.574;55.878;2022-08-19T05:59:42;3.08;;;1.65;;
60088;SDS011;45961;53.574;55.878;2022-08-19T06:00:46;5.47;;;1.35;;
60088;SDS011;45961;53.574;55.878;2022-08-19T06:01:47;6.53;;;1.90;;
60088;SDS011;45961;53.574;55.878;2022-08-19T06:02:52;3.85;;;1.77;;
60088;SDS011;45961;53.574;55.878;2022-08-19T06:03:56;5.20;;;1.30;;
60088;SDS011;45961;53.574;55.878;2022-08-19T06:04:57;4.82;;;1.80;;
60088;SDS011;45961;53.574;55.878;2022-08-19T06:05:59;5.03;;;1.60;;
60088;SDS011;45961;53.574;55.878;2022-08-19T06:07:00;2.58;;;1.27;;
60088;SDS011;45961;53.574;55.878;2022-08-19T06:08:02;3.17;;;1.52;;
60088;SDS011;45961;53.574;55.878;2022-08-19T06:09:05;2.80;;;1.42;;
60088;SDS011;45961;53.574;55.878;2022-08-19T06:10:09;2.20;;;1.70;;
60088;SDS011;45961;53.574;55.878;2022-08-19T06:11:16;5.85;;;1.58;;
60088;SDS011;45961;53.574;55.878;2022-08-19T06:12:35;5.55;;;1.95;;
60088;SDS011;45961;53.574;55.878;2022-08-19T06:13:36;4.10;;;1.85;;
60088;SDS011;45961;53.574;55.878;2022-08-19T06:14:39;2.72;;;1.70;;
60088;SDS011;45961;53.574;55.878;2022-08-19T06:15:41;3.97;;;1.73;;
60088;SDS011;45961;53.574;55.878;2022-08-19T06:16:44;4.53;;;1.85;;
60088;SDS011;45961;53.574;55.878;2022-08-19T06:17:46;3.17;;;1.60;;
60088;SDS011;45961;53.574;55.878;2022-08-19T06:18:47;3.10;;;1.35;;
60088;SDS011;45961;53.574;55.878;2022-08-19T06:19:54;2.45;;;1.17;;
60088;SDS011;45961;53.574;55.878;2022-08-19T06:20:55;8.77;;;2.05;;
60088;SDS011;45961;53.574;55.878;2022-08-19T06:21:57;8.45;;;1.98;;
60088;SDS011;45961;53.574;55.878;2022-08-19T06:22:59;2.28;;;1.73;;
60088;SDS011;45961;53.574;55.878;2022-08-19T06:24:00;2.15;;;1.50;;
60088;SDS011;45961;53.574;55.878;2022-08-19T06:25:03;2.38;;;1.30;;
60088;SDS011;45961;53.574;55.878;2022-08-19T06:26:04;6.30;;;1.60;;
60088;SDS011;45961;53.574;55.878;2022-08-19T06:27:05;6.18;;;1.70;;
60088;SDS011;45961;53.574;55.878;2022-08-19T06:28:06;3.67;;;1.63;;
60088;SDS011;45961;53.574;55.878;2022-08-19T06:29:08;3.70;;;1.90;;
60088;SDS011;45961;53.574;55.878;2022-08-19T06:30:10;2.58;;;1.70;;
60088;SDS011;45961;53.574;55.878;2022-08-19T06:31:13;9.68;;;1.88;;
60088;SDS011;45961;53.574;55.878;2022-08-19T06:32:20;5.28;;;1.67;;
60088;SDS011;45961;53.574;55.878;2022-08-19T06:33:21;4.45;;;1.80;;
60088;SDS011;45961;53.574;55.878;2022-08-19T06:34:22;5.03;;;1.58;;
60088;SDS011;45961;53.574;55.878;2022-08-19T06:36:27;3.13;;;1.75;;
60088;SDS011;45961;53.574;55.878;2022-08-19T06:37:35;4.72;;;1.80;;
60088;SDS011;45961;53.574;55.878;2022-08-19T06:38:37;6.38;;;1.98;;
60088;SDS011;45961;53.574;55.878;2022-08-19T06:39:39;3.35;;;1.55;;
60088;SDS011;45961;53.574;55.878;2022-08-19T06:40:42;6.70;;;2.03;;
60088;SDS011;45961;53.574;55.878;2022-08-19T06:41:45;4.32;;;1.80;;